createdAt,value
2017-12-16T00:00:06.234Z,35.00
2017-12-16T00:02:33.669Z,35.40
2017-12-16T00:05:03.078Z,88.68
2017-12-16T00:07:30.653Z,62.20
2017-12-16T00:09:58.090Z,83.82
2017-12-16T00:12:25.532Z,235.55
2017-12-16T00:14:53.025Z,345.55
2017-12-16T00:17:20.797Z,312.55
2017-12-16T00:19:49.008Z,277.60
2017-12-16T00:22:16.513Z,284.00
2017-12-16T00:24:44.117Z,296.80
2017-12-16T00:27:11.587Z,259.85
2017-12-16T00:29:42.081Z,294.20
2017-12-16T00:32:10.298Z,324.00
2017-12-16T00:34:37.782Z,314.75
2017-12-16T00:37:05.247Z,180.48
2017-12-16T00:39:32.686Z,242.07
2017-12-16T00:42:00.274Z,212.80
2017-12-16T00:44:27.738Z,282.35
2017-12-16T00:46:55.177Z,368.73
2017-12-16T00:49:22.696Z,265.23
2017-12-16T00:51:53.992Z,397.88
2017-12-16T00:54:21.434Z,201.20
2017-12-16T00:56:48.909Z,106.32
2017-12-16T00:59:16.341Z,93.65
2017-12-16T01:01:43.777Z,56.75
2017-12-16T01:04:11.288Z,52.60
2017-12-16T01:06:38.755Z,223.23
2017-12-16T01:09:06.318Z,263.35
2017-12-16T01:11:34.527Z,246.20
2017-12-16T01:14:02.082Z,306.25
2017-12-16T01:16:29.538Z,299.52
2017-12-16T01:19:03.169Z,142.18
2017-12-16T01:21:30.602Z,149.35
2017-12-16T01:23:58.199Z,88.50
2017-12-16T01:26:25.646Z,55.20
2017-12-16T01:28:53.134Z,161.68
2017-12-16T01:31:20.569Z,43.78
2017-12-16T01:33:59.861Z,52.35
2017-12-16T01:36:39.326Z,150.30
2017-12-16T01:39:06.930Z,37.65
2017-12-16T01:41:34.360Z,58.75
2017-12-16T01:44:01.849Z,33.65
2017-12-16T01:46:30.176Z,125.53
2017-12-16T01:48:57.629Z,142.02
2017-12-16T01:51:25.237Z,48.28
2017-12-16T01:53:52.701Z,93.28
2017-12-16T01:56:20.917Z,83.07
2017-12-16T01:58:48.445Z,99.10
2017-12-16T02:01:16.685Z,53.90
2017-12-16T02:03:44.123Z,38.25
2017-12-16T02:06:13.548Z,59.58
2017-12-16T02:08:41.041Z,76.95
2017-12-16T02:11:09.265Z,54.40
2017-12-16T02:13:36.811Z,97.00
2017-12-16T02:16:04.289Z,44.97
2017-12-16T02:18:32.989Z,34.60
2017-12-16T02:21:00.425Z,37.72
2017-12-16T02:23:27.881Z,29.75
2017-12-16T02:25:55.326Z,38.00
2017-12-16T02:28:22.787Z,30.77
2017-12-16T02:30:52.221Z,32.00
2017-12-16T02:33:19.857Z,27.60
2017-12-16T02:35:47.300Z,27.73
2017-12-16T02:38:14.724Z,28.95
2017-12-16T02:40:42.957Z,28.52
2017-12-16T02:43:10.441Z,30.17
2017-12-16T02:45:37.868Z,30.10
2017-12-16T02:48:05.462Z,28.42
2017-12-16T02:50:33.001Z,29.10
2017-12-16T02:53:00.461Z,28.50
2017-12-16T02:55:36.926Z,29.67
2017-12-16T02:58:04.356Z,29.25
2017-12-16T03:00:31.817Z,28.05
2017-12-16T03:02:59.253Z,25.02
2017-12-16T03:05:26.712Z,27.87
2017-12-16T03:07:54.148Z,35.88
2017-12-16T03:10:22.509Z,26.67
2017-12-16T03:12:49.944Z,29.83
2017-12-16T03:15:17.405Z,32.75
2017-12-16T03:17:44.849Z,32.05
2017-12-16T03:20:12.316Z,29.83
2017-12-16T03:22:40.737Z,30.12
2017-12-16T03:25:08.945Z,32.65
2017-12-16T03:27:36.468Z,31.35
2017-12-16T03:30:04.664Z,32.08
2017-12-16T03:32:33.592Z,28.02
2017-12-16T03:35:01.024Z,33.75
2017-12-16T03:37:28.489Z,44.50
2017-12-16T03:39:55.949Z,60.63
2017-12-16T03:42:29.473Z,31.27
2017-12-16T03:44:56.936Z,38.67
2017-12-16T03:47:24.379Z,30.12
2017-12-16T03:49:51.817Z,34.38
2017-12-16T03:52:19.604Z,32.53
2017-12-16T03:54:47.061Z,29.23
2017-12-16T03:57:14.497Z,34.30
2017-12-16T03:59:41.993Z,27.90
2017-12-16T04:02:09.428Z,30.20
2017-12-16T04:04:36.873Z,32.25
2017-12-16T04:07:04.466Z,30.48
2017-12-16T04:09:32.304Z,32.35
2017-12-16T04:11:59.743Z,33.95
2017-12-16T04:14:27.176Z,27.45
2017-12-16T04:16:56.424Z,32.80
2017-12-16T04:19:23.896Z,31.08
2017-12-16T04:21:51.341Z,31.62
2017-12-16T04:24:18.956Z,28.58
2017-12-16T04:26:46.392Z,32.00
2017-12-16T04:29:14.599Z,34.92
2017-12-16T04:31:42.084Z,32.30
2017-12-16T04:34:09.522Z,29.92
2017-12-16T04:36:36.948Z,29.60
2017-12-16T04:39:09.216Z,30.45
2017-12-16T04:41:37.414Z,32.13
2017-12-16T04:44:05.004Z,37.22
2017-12-16T04:46:32.437Z,33.50
2017-12-16T04:48:59.905Z,34.53
2017-12-16T04:51:27.332Z,29.60
2017-12-16T04:53:55.538Z,31.17
2017-12-16T04:56:23.424Z,32.85
2017-12-16T04:58:50.854Z,29.05
2017-12-16T05:01:19.056Z,31.35
2017-12-16T05:03:46.612Z,33.03
2017-12-16T05:06:14.052Z,32.50
2017-12-16T05:08:41.487Z,35.40
2017-12-16T05:11:09.709Z,30.55
2017-12-16T05:13:37.146Z,30.33
2017-12-16T05:16:05.584Z,29.87
2017-12-16T05:18:36.436Z,28.83
2017-12-16T05:21:03.864Z,35.08
2017-12-16T05:23:32.783Z,34.17
2017-12-16T05:26:00.973Z,34.53
2017-12-16T05:28:28.457Z,36.33
2017-12-16T05:30:55.908Z,35.35
2017-12-16T05:33:23.370Z,35.58
2017-12-16T05:35:50.800Z,40.78
2017-12-16T05:38:18.260Z,39.78
2017-12-16T05:40:46.148Z,36.15
2017-12-16T05:43:13.624Z,37.60
2017-12-16T05:45:41.056Z,34.55
2017-12-16T05:48:08.520Z,41.75
2017-12-16T05:50:35.956Z,39.47
2017-12-16T05:53:03.412Z,42.75
2017-12-16T05:55:32.759Z,46.88
2017-12-16T05:58:00.285Z,49.63
2017-12-16T06:00:28.482Z,51.20
2017-12-16T06:02:58.401Z,58.47
2017-12-16T06:05:27.821Z,53.67
2017-12-16T06:07:55.247Z,58.35
2017-12-16T06:10:22.873Z,59.30
2017-12-16T06:12:52.036Z,58.38
2017-12-16T06:15:19.871Z,57.15
2017-12-16T06:17:47.304Z,62.95
2017-12-16T06:20:14.741Z,62.25
2017-12-16T06:22:42.969Z,61.13
2017-12-16T06:25:26.261Z,61.20
2017-12-16T06:27:53.698Z,57.95
2017-12-16T06:30:22.545Z,60.38
2017-12-16T06:32:49.981Z,57.45
2017-12-16T06:35:17.416Z,55.03
2017-12-16T06:37:44.876Z,63.42
2017-12-16T06:40:12.337Z,58.22
2017-12-16T06:42:39.774Z,62.65
2017-12-16T06:45:08.311Z,59.13
2017-12-16T06:47:39.689Z,57.30
2017-12-16T06:50:07.121Z,56.15
2017-12-16T06:52:34.620Z,50.38
2017-12-16T06:55:02.821Z,68.10
2017-12-16T06:57:30.248Z,64.30
2017-12-16T07:00:00.735Z,53.13
2017-12-16T07:02:28.186Z,65.50
2017-12-16T07:04:55.624Z,64.90
2017-12-16T07:07:23.113Z,63.13
2017-12-16T07:09:50.555Z,63.15
2017-12-16T07:12:18.988Z,65.80
2017-12-16T07:14:47.258Z,62.03
2017-12-16T07:17:15.904Z,62.17
2017-12-16T07:19:43.349Z,145.52
2017-12-16T07:22:10.784Z,97.57
2017-12-16T07:24:38.245Z,71.15
2017-12-16T07:27:05.720Z,77.93
2017-12-16T07:29:33.152Z,77.55
2017-12-16T07:32:00.597Z,95.90
2017-12-16T07:34:28.961Z,81.93
2017-12-16T07:36:56.425Z,72.72
2017-12-16T07:39:24.021Z,82.10
2017-12-16T07:41:51.458Z,89.45
2017-12-16T07:44:19.664Z,84.75
2017-12-16T07:46:47.171Z,87.28
2017-12-16T07:49:14.675Z,90.55
2017-12-16T07:51:42.100Z,88.80
2017-12-16T07:54:10.300Z,95.50
2017-12-16T07:56:37.804Z,82.05
2017-12-16T07:59:05.252Z,109.15
2017-12-16T08:01:33.196Z,119.82
2017-12-16T08:04:00.636Z,119.22
2017-12-16T08:06:28.084Z,116.25
2017-12-16T08:08:56.296Z,141.68
2017-12-16T08:11:24.085Z,106.25
2017-12-16T08:13:51.568Z,113.18
2017-12-16T08:16:19.970Z,116.72
2017-12-16T08:18:48.309Z,130.93
2017-12-16T08:21:15.750Z,107.15
2017-12-16T08:23:43.193Z,158.45
2017-12-16T08:26:10.673Z,136.37
2017-12-16T08:28:38.112Z,100.68
2017-12-16T08:31:05.560Z,100.25
2017-12-16T08:33:33.137Z,96.00
2017-12-16T08:36:00.583Z,116.70
2017-12-16T08:38:28.023Z,113.50
2017-12-16T08:41:00.541Z,103.22
2017-12-16T08:43:29.604Z,107.12
2017-12-16T08:45:57.184Z,105.37
2017-12-16T08:48:24.624Z,93.28
2017-12-16T08:50:52.832Z,104.80
2017-12-16T08:53:20.342Z,99.57
2017-12-16T08:55:47.772Z,106.68
2017-12-16T08:58:16.053Z,96.57
2017-12-16T09:00:44.304Z,101.70
2017-12-16T09:03:11.824Z,104.53
2017-12-16T09:05:39.279Z,111.28
2017-12-16T09:08:06.745Z,97.53
2017-12-16T09:10:34.186Z,105.87
2017-12-16T09:13:01.745Z,102.35
2017-12-16T09:15:29.187Z,95.50
2017-12-16T09:17:57.413Z,102.40
2017-12-16T09:20:25.000Z,98.90
2017-12-16T09:22:52.447Z,102.12
2017-12-16T09:25:19.897Z,94.75
2017-12-16T09:27:47.364Z,100.50
2017-12-16T09:30:14.808Z,91.10
2017-12-16T09:32:42.249Z,101.40
2017-12-16T09:35:09.850Z,97.75
2017-12-16T09:37:37.345Z,107.95
2017-12-16T09:40:04.780Z,93.97
2017-12-16T09:42:33.017Z,96.53
2017-12-16T09:45:00.461Z,88.55
2017-12-16T09:47:27.921Z,91.53
2017-12-16T09:49:55.366Z,97.12
2017-12-16T09:52:22.887Z,80.47
2017-12-16T09:54:53.109Z,88.12
2017-12-16T09:57:21.312Z,73.97
2017-12-16T09:59:48.751Z,73.60
2017-12-16T10:02:16.246Z,72.28
2017-12-16T10:04:43.684Z,68.28
2017-12-16T10:07:11.120Z,63.50
2017-12-16T10:09:39.337Z,72.15
2017-12-16T10:12:06.774Z,74.37
2017-12-16T10:14:34.237Z,61.83
2017-12-16T10:17:03.685Z,60.12
2017-12-16T10:19:31.145Z,56.85
2017-12-16T10:21:58.817Z,64.15
2017-12-16T10:24:27.222Z,61.95
2017-12-16T10:26:54.657Z,56.70
2017-12-16T10:29:23.852Z,70.97
2017-12-16T10:31:52.068Z,52.50
2017-12-16T10:34:20.775Z,58.90
2017-12-16T10:36:50.688Z,54.30
2017-12-16T10:39:18.122Z,57.08
2017-12-16T10:41:45.553Z,58.75
2017-12-16T10:44:15.001Z,51.92
2017-12-16T10:46:42.461Z,50.17
2017-12-16T10:49:09.901Z,52.20
2017-12-16T10:51:38.156Z,50.63
2017-12-16T10:54:14.553Z,48.45
2017-12-16T10:56:42.023Z,46.70
2017-12-16T10:59:09.472Z,44.55
2017-12-16T11:01:36.922Z,44.92
2017-12-16T11:04:04.490Z,44.88
2017-12-16T11:06:31.921Z,58.42
2017-12-16T11:08:59.494Z,44.38
2017-12-16T11:11:26.946Z,45.33
2017-12-16T11:13:54.384Z,51.05
2017-12-16T11:16:22.656Z,43.70
2017-12-16T11:18:50.890Z,45.50
2017-12-16T11:21:18.585Z,34.65
2017-12-16T11:23:46.135Z,58.45
2017-12-16T11:26:13.574Z,30.77
2017-12-16T11:28:44.134Z,24.23
2017-12-16T11:31:12.402Z,32.75
2017-12-16T11:33:43.739Z,29.70
2017-12-16T11:36:11.176Z,30.52
2017-12-16T11:38:38.628Z,29.90
2017-12-16T11:41:06.141Z,31.12
2017-12-16T11:43:34.383Z,43.25
2017-12-16T11:46:01.904Z,30.00
2017-12-16T11:48:29.340Z,28.27
2017-12-16T11:50:56.811Z,28.33
2017-12-16T11:53:24.264Z,27.15
2017-12-16T11:55:51.732Z,29.23
2017-12-16T11:58:19.168Z,25.35
2017-12-16T12:00:46.601Z,26.65
2017-12-16T12:03:14.129Z,28.00
2017-12-16T12:05:41.593Z,20.33
2017-12-16T12:08:09.033Z,20.23
2017-12-16T12:10:36.592Z,25.20
2017-12-16T12:13:04.044Z,22.33
2017-12-16T12:15:31.489Z,20.30
2017-12-16T12:17:58.993Z,19.58
2017-12-16T12:20:26.632Z,25.17
2017-12-16T12:22:54.126Z,29.50
2017-12-16T12:25:21.563Z,28.48
2017-12-16T12:27:49.016Z,21.08
2017-12-16T12:30:16.455Z,20.75
2017-12-16T12:32:43.999Z,19.00
2017-12-16T12:35:11.428Z,18.23
2017-12-16T12:37:39.639Z,23.02
2017-12-16T12:40:07.310Z,19.55
2017-12-16T12:42:34.751Z,18.27
2017-12-16T12:45:02.225Z,20.92
2017-12-16T12:47:29.666Z,19.52
2017-12-16T12:49:57.175Z,15.90
2017-12-16T12:52:24.605Z,15.80
2017-12-16T12:54:52.069Z,21.42
2017-12-16T12:57:19.504Z,16.60
2017-12-16T12:59:47.015Z,21.83
2017-12-16T13:02:14.448Z,16.87
2017-12-16T13:04:41.913Z,16.35
2017-12-16T13:07:09.356Z,39.60
2017-12-16T13:09:36.820Z,19.85
2017-12-16T13:12:04.281Z,19.90
2017-12-16T13:14:32.161Z,20.92
2017-12-16T13:16:59.600Z,17.77
2017-12-16T13:19:27.045Z,16.52
2017-12-16T13:21:54.675Z,19.35
2017-12-16T13:24:22.405Z,20.25
2017-12-16T13:32:31.333Z,16.65
2017-12-16T13:34:58.774Z,12.37
2017-12-16T13:37:26.345Z,13.00
2017-12-16T13:39:53.783Z,13.10
2017-12-16T13:42:21.254Z,14.60
2017-12-16T13:44:48.717Z,12.70
2017-12-16T13:47:16.240Z,8.88
2017-12-16T13:49:43.685Z,7.07
2017-12-16T13:52:11.890Z,10.32
2017-12-16T13:54:51.420Z,9.98
2017-12-16T13:57:18.863Z,12.93
2017-12-16T13:59:47.223Z,13.10
2017-12-16T14:05:11.545Z,13.48
2017-12-16T14:07:39.747Z,10.73
2017-12-16T14:10:07.181Z,11.80
2017-12-16T14:12:35.413Z,7.47
2017-12-16T14:15:02.858Z,10.20
2017-12-16T14:17:30.288Z,9.93
2017-12-16T14:19:57.761Z,12.60
2017-12-16T14:22:26.904Z,11.10
2017-12-16T14:24:54.638Z,13.55
2017-12-16T14:27:22.078Z,11.00
2017-12-16T14:29:49.679Z,12.02
2017-12-16T14:32:17.120Z,12.98
2017-12-16T14:34:49.433Z,13.95
2017-12-16T14:37:17.642Z,21.62
2017-12-16T14:39:45.153Z,15.25
2017-12-16T14:42:12.610Z,15.43
2017-12-16T14:44:40.134Z,11.75
2017-12-16T14:47:07.760Z,21.33
2017-12-16T14:49:35.222Z,18.12
2017-12-16T14:52:02.669Z,102.93
2017-12-16T14:54:30.889Z,26.85
2017-12-16T14:56:58.342Z,19.20
2017-12-16T14:59:25.859Z,15.88
2017-12-16T15:01:54.056Z,23.58
2017-12-16T15:04:38.453Z,15.27
2017-12-16T15:07:05.889Z,31.00
2017-12-16T15:09:33.405Z,14.90
2017-12-16T15:12:01.608Z,30.15
2017-12-16T15:14:29.172Z,22.35
2017-12-16T15:16:56.603Z,16.12
2017-12-16T15:19:36.779Z,15.77
2017-12-16T15:22:04.220Z,15.32
2017-12-16T15:24:32.126Z,44.70
2017-12-16T15:26:59.565Z,17.25
2017-12-16T15:29:27.057Z,27.77
2017-12-16T15:31:54.764Z,15.60
2017-12-16T15:34:22.233Z,16.70
2017-12-16T15:36:49.721Z,11.75
2017-12-16T15:39:17.184Z,11.75
2017-12-16T15:41:44.623Z,14.75
2017-12-16T15:44:12.230Z,11.05
2017-12-16T15:46:40.060Z,6.05
2017-12-16T15:49:07.497Z,18.73
2017-12-16T15:51:34.923Z,5.50
2017-12-16T15:54:03.275Z,3.25
2017-12-16T15:56:30.710Z,4.30
2017-12-16T15:58:58.186Z,12.23
2017-12-16T16:01:25.623Z,17.70
2017-12-16T16:03:53.082Z,7.85
2017-12-16T16:06:20.518Z,6.37
2017-12-16T16:08:47.976Z,8.75
2017-12-16T16:11:15.417Z,8.32
2017-12-16T16:13:42.969Z,8.82
2017-12-16T16:16:11.172Z,13.73
2017-12-16T16:18:38.610Z,16.70
2017-12-16T16:21:10.501Z,12.70
2017-12-16T16:23:37.988Z,10.60
2017-12-16T16:26:05.457Z,23.62
2017-12-16T16:28:33.837Z,14.05
2017-12-16T16:31:01.758Z,12.57
2017-12-16T16:33:29.332Z,16.40
2017-12-16T16:35:56.958Z,9.05
2017-12-16T16:38:26.143Z,11.50
2017-12-16T16:40:54.418Z,15.98
2017-12-16T16:43:22.666Z,13.62
2017-12-16T16:45:50.191Z,10.50
2017-12-16T16:48:17.933Z,13.98
2017-12-16T16:50:45.452Z,14.60
2017-12-16T16:53:12.903Z,15.13
2017-12-16T16:55:40.467Z,17.45
2017-12-16T16:58:07.933Z,19.23
2017-12-16T17:00:35.437Z,22.48
2017-12-16T17:03:02.907Z,18.35
2017-12-16T17:05:34.106Z,20.85
2017-12-16T17:08:02.311Z,22.17
2017-12-16T17:10:29.787Z,17.55
2017-12-16T17:12:57.273Z,20.67
2017-12-16T17:15:24.738Z,18.55
2017-12-16T17:17:52.231Z,22.33
2017-12-16T17:20:20.692Z,21.75
2017-12-16T17:22:49.293Z,19.45
2017-12-16T17:25:16.738Z,21.00
2017-12-16T17:27:44.956Z,21.85
2017-12-16T17:30:12.438Z,32.83
2017-12-16T17:32:39.868Z,27.08
2017-12-16T17:35:07.459Z,17.05
2017-12-16T17:37:40.985Z,17.05
2017-12-16T17:40:14.358Z,18.25
2017-12-16T17:42:41.796Z,16.25
2017-12-16T17:45:09.249Z,21.48
2017-12-16T17:47:36.715Z,18.30
2017-12-16T17:50:04.193Z,13.95
2017-12-16T17:52:31.652Z,18.80
2017-12-16T17:54:59.133Z,14.80
2017-12-16T17:57:40.128Z,15.52
2017-12-16T18:00:07.761Z,24.98
2017-12-16T18:02:35.998Z,16.67
2017-12-16T18:05:03.442Z,16.27
2017-12-16T18:07:31.670Z,79.37
2017-12-16T18:09:59.123Z,22.40
2017-12-16T18:12:26.602Z,36.75
2017-12-16T18:14:54.841Z,21.90
2017-12-16T18:17:22.548Z,33.78
2017-12-16T18:19:50.062Z,17.90
2017-12-16T18:22:17.762Z,24.85
2017-12-16T18:24:45.985Z,20.30
2017-12-16T18:27:13.439Z,19.50
2017-12-16T18:29:40.923Z,25.42
2017-12-16T18:32:08.518Z,35.15
2017-12-16T18:34:36.226Z,22.62
2017-12-16T18:37:05.662Z,25.98
2017-12-16T18:39:33.144Z,28.55
2017-12-16T18:42:01.336Z,27.05
2017-12-16T18:44:28.790Z,21.50
2017-12-16T18:46:56.256Z,24.67
2017-12-16T18:49:49.767Z,48.22
2017-12-16T18:52:17.196Z,30.30
2017-12-16T18:54:44.641Z,27.40
2017-12-16T18:57:12.113Z,29.65
2017-12-16T18:59:39.550Z,26.60
2017-12-16T19:02:07.021Z,28.25
2017-12-16T19:04:34.482Z,29.98
2017-12-16T19:07:02.041Z,26.05
2017-12-16T19:09:29.490Z,27.45
2017-12-16T19:11:57.923Z,29.67
2017-12-16T19:14:25.395Z,44.45
2017-12-16T19:16:53.648Z,35.60
2017-12-16T19:19:21.097Z,24.05
2017-12-16T19:21:49.693Z,29.33
2017-12-16T19:24:17.237Z,35.17
2017-12-16T19:26:44.693Z,34.20
2017-12-16T19:29:12.146Z,45.88
2017-12-16T19:31:39.649Z,28.52
2017-12-16T19:34:08.187Z,36.28
2017-12-16T19:36:37.648Z,31.52
2017-12-16T19:39:05.175Z,34.92
2017-12-16T19:41:33.877Z,26.30
2017-12-16T19:44:01.379Z,27.50
2017-12-16T19:46:29.723Z,28.15
2017-12-16T19:48:57.437Z,43.72
2017-12-16T19:51:25.876Z,32.47
2017-12-16T19:53:53.388Z,29.40
2017-12-16T19:56:20.940Z,27.90
2017-12-16T19:58:48.481Z,29.60
2017-12-16T20:01:16.113Z,28.05
2017-12-16T20:03:49.679Z,27.13
2017-12-16T20:06:18.149Z,31.20
2017-12-16T20:08:46.491Z,35.65
2017-12-16T20:11:14.026Z,57.65
2017-12-16T20:13:41.599Z,32.30
2017-12-16T20:16:09.122Z,25.05
2017-12-16T20:18:37.461Z,25.85
2017-12-16T20:21:05.195Z,25.62
2017-12-16T20:23:32.918Z,26.80
2017-12-16T20:26:00.410Z,27.23
2017-12-16T20:28:27.908Z,23.90
2017-12-16T20:30:55.379Z,28.02
2017-12-16T20:33:22.852Z,28.40
2017-12-16T20:35:50.300Z,23.60
2017-12-16T20:38:17.836Z,44.70
2017-12-16T20:40:45.838Z,20.77
2017-12-16T20:43:18.011Z,35.13
2017-12-16T20:45:45.481Z,29.27
2017-12-16T20:48:13.741Z,33.60
2017-12-16T20:50:41.156Z,27.50
2017-12-16T20:53:08.632Z,33.67
2017-12-16T20:55:41.013Z,29.30
2017-12-16T20:58:17.569Z,30.65
2017-12-16T21:00:45.502Z,22.13
2017-12-16T21:03:12.965Z,25.08
2017-12-16T21:05:40.393Z,30.83
2017-12-16T21:08:08.632Z,25.77
2017-12-16T21:10:36.108Z,32.65
2017-12-16T21:13:03.561Z,32.28
2017-12-16T21:15:30.999Z,29.70
2017-12-16T21:17:58.789Z,22.45
2017-12-16T21:20:26.244Z,19.25
2017-12-16T21:22:53.802Z,20.27
2017-12-16T21:25:22.181Z,17.37
2017-12-16T21:27:49.664Z,139.65
2017-12-16T21:30:17.867Z,22.25
2017-12-16T21:32:45.334Z,24.67
2017-12-16T21:35:12.778Z,18.55
2017-12-16T21:37:40.326Z,18.05
2017-12-16T21:40:07.769Z,21.23
2017-12-16T21:42:35.212Z,18.85
2017-12-16T21:45:02.757Z,16.25
2017-12-16T21:47:30.206Z,17.12
2017-12-16T21:49:57.680Z,20.37
2017-12-16T21:52:25.125Z,18.30
2017-12-16T21:54:52.718Z,20.23
2017-12-16T21:57:20.926Z,18.58
2017-12-16T21:59:48.386Z,19.40
2017-12-16T22:02:15.825Z,20.20
2017-12-16T22:04:44.119Z,21.90
2017-12-16T22:07:11.568Z,20.75
2017-12-16T22:09:44.154Z,22.58
2017-12-16T22:12:11.593Z,25.58
2017-12-16T22:14:39.931Z,23.65
2017-12-16T22:17:07.412Z,24.83
2017-12-16T22:19:35.622Z,21.65
2017-12-16T22:22:03.072Z,20.17
2017-12-16T22:24:30.537Z,19.70
2017-12-16T22:26:57.977Z,19.58
2017-12-16T22:32:04.342Z,19.60
2017-12-16T22:34:31.805Z,18.85
2017-12-16T22:37:00.010Z,21.08
2017-12-16T22:39:27.473Z,24.40
2017-12-16T22:41:54.931Z,22.58
2017-12-16T22:44:22.358Z,26.12
2017-12-16T22:46:50.756Z,25.02
2017-12-16T22:52:10.937Z,25.30
2017-12-16T22:54:40.369Z,27.52
2017-12-16T22:57:07.810Z,25.37
2017-12-16T22:59:36.037Z,26.92
2017-12-16T23:02:03.592Z,26.52
2017-12-16T23:04:31.028Z,29.75
2017-12-16T23:06:59.280Z,29.35
2017-12-16T23:09:26.761Z,36.92
2017-12-16T23:11:54.202Z,33.55
2017-12-16T23:14:21.628Z,33.25
2017-12-16T23:16:49.092Z,29.98
2017-12-16T23:19:17.291Z,38.42
2017-12-16T23:21:44.950Z,29.48
2017-12-16T23:24:20.319Z,34.30
2017-12-16T23:26:47.785Z,31.73
2017-12-16T23:29:15.220Z,32.33
2017-12-16T23:31:42.733Z,34.15
2017-12-16T23:34:10.167Z,33.38
2017-12-16T23:36:37.630Z,32.25
2017-12-16T23:39:05.233Z,34.55
2017-12-16T23:41:44.249Z,35.40
2017-12-16T23:44:11.689Z,31.33
2017-12-16T23:46:39.149Z,28.73
2017-12-16T23:49:06.630Z,31.33
2017-12-16T23:57:28.859Z,28.45
2017-12-16T23:59:56.346Z,28.87
